createdAt,value
2022-10-31T00:03:00.671Z,65.73
2022-10-31T00:06:08.990Z,65.80
2022-10-31T00:09:17.250Z,65.46
2022-10-31T00:12:22.964Z,65.45
2022-10-31T00:15:29.176Z,65.40
2022-10-31T00:18:35.785Z,65.16
2022-10-31T00:21:42.577Z,65.17
2022-10-31T00:24:49.081Z,64.90
2022-10-31T00:27:54.880Z,64.67
2022-10-31T00:31:01.094Z,64.51
2022-10-31T00:34:07.229Z,64.44
2022-10-31T00:37:13.556Z,64.80
2022-10-31T00:40:23.158Z,64.78
2022-10-31T00:43:29.407Z,65.36
2022-10-31T00:46:35.874Z,66.09
2022-10-31T00:49:41.878Z,66.40
2022-10-31T00:52:47.400Z,66.63
2022-10-31T00:55:53.228Z,66.71
2022-10-31T00:58:59.354Z,66.78
2022-10-31T01:02:04.270Z,66.80
2022-10-31T01:05:10.607Z,67.16
2022-10-31T01:08:17.842Z,67.09
2022-10-31T01:11:30.414Z,67.43
2022-10-31T01:14:38.026Z,67.54
2022-10-31T01:17:44.707Z,67.63
2022-10-31T01:20:50.636Z,67.82
2022-10-31T01:23:57.564Z,67.84
2022-10-31T01:27:04.123Z,68.29
2022-10-31T01:30:09.415Z,67.99
2022-10-31T01:33:16.071Z,68.12
2022-10-31T01:36:42.531Z,68.18
2022-10-31T01:39:48.247Z,68.27
2022-10-31T01:42:54.625Z,68.14
2022-10-31T01:46:03.403Z,68.08
2022-10-31T01:49:10.035Z,68.60
2022-10-31T01:52:19.954Z,68.43
2022-10-31T01:55:35.840Z,68.69
2022-10-31T01:58:43.755Z,68.72
2022-10-31T02:01:49.299Z,69.05
2022-10-31T02:04:55.593Z,69.10
2022-10-31T02:08:44.760Z,69.38
2022-10-31T02:11:53.244Z,69.58
2022-10-31T02:14:59.857Z,69.76
2022-10-31T02:18:05.253Z,69.47
2022-10-31T02:21:36.137Z,69.52
2022-10-31T02:25:21.135Z,69.36
2022-10-31T02:29:05.869Z,69.49
2022-10-31T02:32:26.850Z,69.80
2022-10-31T02:35:43.189Z,69.91
2022-10-31T02:39:07.785Z,69.91
2022-10-31T02:42:39.541Z,69.86
2022-10-31T02:46:08.078Z,70.11
2022-10-31T02:49:11.421Z,70.33
2022-10-31T02:52:18.033Z,70.34
2022-10-31T02:55:43.500Z,70.02
2022-10-31T02:58:53.175Z,69.42
2022-10-31T03:02:19.011Z,69.37
2022-10-31T03:06:01.639Z,69.21
2022-10-31T03:09:23.426Z,69.15
2022-10-31T03:12:25.742Z,69.52
2022-10-31T03:15:42.714Z,69.80
2022-10-31T03:18:58.285Z,69.65
2022-10-31T03:22:15.078Z,69.87
2022-10-31T03:25:21.550Z,69.98
2022-10-31T03:28:28.669Z,69.93
2022-10-31T03:31:38.380Z,70.02
2022-10-31T03:34:45.344Z,69.67
2022-10-31T03:37:52.878Z,69.83
2022-10-31T03:41:00.212Z,70.30
2022-10-31T03:44:13.013Z,70.37
2022-10-31T03:47:21.601Z,70.77
2022-10-31T03:50:23.129Z,70.89
2022-10-31T03:53:45.110Z,71.12
2022-10-31T03:56:54.998Z,71.06
2022-10-31T04:00:05.482Z,71.10
2022-10-31T04:03:34.583Z,71.04
2022-10-31T04:06:41.786Z,71.30
2022-10-31T04:09:49.159Z,71.50
2022-10-31T04:12:54.914Z,71.69
2022-10-31T04:16:02.750Z,71.87
2022-10-31T04:19:08.682Z,71.77
2022-10-31T04:22:14.964Z,71.60
2022-10-31T04:25:23.288Z,71.79
2022-10-31T04:28:29.532Z,71.51
2022-10-31T04:31:34.275Z,71.39
2022-10-31T04:34:39.771Z,71.45
2022-10-31T04:37:38.263Z,71.20
2022-10-31T04:40:45.385Z,71.52
2022-10-31T04:44:03.107Z,71.91
2022-10-31T04:47:09.548Z,71.86
2022-10-31T04:50:15.151Z,71.94
2022-10-31T04:53:20.561Z,72.15
2022-10-31T04:56:29.168Z,72.01
2022-10-31T04:59:35.757Z,71.96
2022-10-31T05:02:44.520Z,72.14
2022-10-31T05:05:51.858Z,72.07
2022-10-31T05:08:57.955Z,72.14
2022-10-31T05:12:04.716Z,72.32
2022-10-31T05:15:20.000Z,72.06
2022-10-31T05:18:45.426Z,72.09
2022-10-31T05:22:12.478Z,71.77
2022-10-31T05:25:19.957Z,71.67
2022-10-31T07:56:40.524Z,75.12
2022-10-31T07:59:48.102Z,75.06
2022-10-31T08:03:00.290Z,74.77
2022-10-31T08:06:14.161Z,73.78
2022-10-31T08:09:48.277Z,74.21
2022-10-31T08:13:01.280Z,73.51
2022-10-31T08:16:12.198Z,73.07
2022-10-31T08:22:24.848Z,73.59
2022-10-31T08:25:38.194Z,73.67
2022-10-31T08:28:42.056Z,73.22
2022-10-31T08:35:13.843Z,69.03
2022-10-31T08:38:36.843Z,68.51
2022-10-31T08:41:52.659Z,59.39
2022-10-31T08:44:46.218Z,56.53
2022-10-31T08:47:59.244Z,57.32
2022-10-31T08:51:07.940Z,54.11
2022-10-31T08:54:16.583Z,54.05
2022-10-31T08:57:30.977Z,52.62
2022-10-31T09:00:38.998Z,52.06
2022-10-31T09:03:50.735Z,50.26
2022-10-31T09:07:20.460Z,50.03
2022-10-31T09:10:14.358Z,49.78
2022-10-31T09:13:28.380Z,51.21
2022-10-31T09:20:04.386Z,51.99
2022-10-31T09:23:20.513Z,50.52
2022-10-31T09:26:19.544Z,50.12
2022-10-31T09:36:46.362Z,50.24
2022-10-31T09:39:58.231Z,50.34
2022-10-31T09:43:36.643Z,48.41
2022-10-31T09:47:08.615Z,46.37
2022-10-31T09:50:46.136Z,46.48
2022-10-31T09:54:21.711Z,45.67
2022-10-31T09:57:34.582Z,47.34
2022-10-31T10:00:47.635Z,45.69
2022-10-31T10:04:35.661Z,46.34
2022-10-31T10:08:00.010Z,45.05
2022-10-31T10:15:10.148Z,41.24
2022-10-31T10:18:39.126Z,41.74
2022-10-31T10:21:56.514Z,38.55
2022-10-31T10:25:32.216Z,39.45
2022-10-31T10:28:49.943Z,38.88
2022-10-31T10:31:56.772Z,37.56
2022-10-31T10:35:06.576Z,37.51
2022-10-31T10:38:15.722Z,36.67
2022-10-31T10:41:29.405Z,38.87
2022-10-31T10:44:52.340Z,38.98
2022-10-31T10:48:03.079Z,37.79
2022-10-31T10:51:25.439Z,37.98
2022-10-31T10:54:47.905Z,38.62
2022-10-31T10:58:14.225Z,39.55
2022-10-31T11:01:30.161Z,40.42
2022-10-31T11:04:49.487Z,38.84
2022-10-31T11:07:55.306Z,40.44
2022-10-31T11:11:00.648Z,41.12
2022-10-31T11:14:20.873Z,41.38
2022-10-31T11:17:39.452Z,37.75
2022-10-31T11:20:50.470Z,38.44
2022-10-31T11:23:57.848Z,37.54
2022-10-31T11:27:05.485Z,37.85
2022-10-31T11:30:20.822Z,38.98
2022-10-31T11:33:43.326Z,36.93
2022-10-31T11:36:46.657Z,38.07
2022-10-31T11:40:00.768Z,37.86
2022-10-31T11:43:06.791Z,37.40
2022-10-31T11:46:13.001Z,38.67
2022-10-31T11:49:18.621Z,37.96
2022-10-31T11:52:36.408Z,38.34
2022-10-31T11:55:49.276Z,37.20
2022-10-31T11:59:16.529Z,37.95
2022-10-31T12:02:34.116Z,38.54
2022-10-31T12:06:01.619Z,39.38
2022-10-31T12:09:08.098Z,39.35
2022-10-31T12:12:40.623Z,40.39
2022-10-31T12:15:51.648Z,41.33
2022-10-31T12:19:06.388Z,40.12
2022-10-31T12:22:20.154Z,41.18
2022-10-31T12:25:32.462Z,41.19
2022-10-31T12:29:04.248Z,41.81
2022-10-31T12:32:14.655Z,40.49
2022-10-31T12:36:10.969Z,40.18
2022-10-31T12:39:52.157Z,40.27
2022-10-31T12:43:38.357Z,39.70
2022-10-31T12:46:58.267Z,39.75
2022-10-31T12:50:57.745Z,40.07
2022-10-31T12:54:27.770Z,40.71
2022-10-31T12:57:45.673Z,40.56
2022-10-31T13:00:51.128Z,40.60
2022-10-31T13:04:12.760Z,39.36
2022-10-31T13:07:21.911Z,38.62
2022-10-31T13:10:39.964Z,38.83
2022-10-31T13:13:59.026Z,38.90
2022-10-31T13:17:04.436Z,39.17
2022-10-31T13:20:22.125Z,39.49
2022-10-31T13:23:50.985Z,39.99
2022-10-31T13:27:00.307Z,39.43
2022-10-31T13:30:17.116Z,39.14
2022-10-31T13:33:25.686Z,39.12
2022-10-31T13:36:56.711Z,39.60
2022-10-31T13:40:28.774Z,39.53
2022-10-31T13:43:47.925Z,39.79
2022-10-31T13:46:54.690Z,40.75
2022-10-31T13:49:59.752Z,41.44
2022-10-31T13:53:06.306Z,41.09
2022-10-31T13:56:36.905Z,41.19
2022-10-31T13:59:47.094Z,41.23
2022-10-31T14:02:51.782Z,41.35
2022-10-31T14:05:56.881Z,41.38
2022-10-31T14:09:06.182Z,41.62
2022-10-31T14:12:15.025Z,42.19
2022-10-31T14:15:38.376Z,42.46
2022-10-31T14:18:54.311Z,42.70
2022-10-31T14:22:01.705Z,43.36
2022-10-31T14:25:08.097Z,43.83
2022-10-31T14:28:14.891Z,43.77
2022-10-31T14:31:45.834Z,43.82
2022-10-31T14:34:59.905Z,43.76
2022-10-31T18:40:07.254Z,55.59
2022-10-31T18:43:12.773Z,55.66
2022-10-31T18:46:21.053Z,55.60
2022-10-31T18:49:29.098Z,55.49
2022-10-31T18:52:34.674Z,55.41
2022-10-31T18:55:43.966Z,55.46
2022-10-31T18:58:48.383Z,55.42
2022-10-31T19:01:54.205Z,55.42
2022-10-31T19:04:54.563Z,55.64
2022-10-31T19:07:59.815Z,55.68
2022-10-31T19:11:05.916Z,55.69
2022-10-31T19:14:13.649Z,55.21
2022-10-31T19:17:20.455Z,55.62
2022-10-31T19:20:27.875Z,55.71
2022-10-31T19:23:34.669Z,55.87
2022-10-31T19:26:41.710Z,56.05
2022-10-31T19:29:49.524Z,56.37
2022-10-31T19:32:54.999Z,56.51
2022-10-31T19:36:01.039Z,56.72
2022-10-31T19:39:07.534Z,56.81
2022-10-31T19:42:13.298Z,56.95
2022-10-31T19:45:20.689Z,57.15
2022-10-31T19:48:25.088Z,56.97
2022-10-31T19:51:34.640Z,56.45
2022-10-31T19:54:39.457Z,56.44
2022-10-31T19:58:01.280Z,56.89
2022-10-31T20:00:56.126Z,56.93
2022-10-31T20:04:01.882Z,57.16
2022-10-31T20:07:09.565Z,57.11
2022-10-31T20:10:15.985Z,57.50
2022-10-31T20:13:22.259Z,57.53
2022-10-31T20:16:27.973Z,57.47
2022-10-31T20:19:33.389Z,58.08
2022-10-31T20:22:39.082Z,58.09
2022-10-31T20:25:44.487Z,58.10
2022-10-31T20:28:50.889Z,57.74
2022-10-31T20:31:56.213Z,58.07
2022-10-31T20:35:03.154Z,58.34
2022-10-31T20:38:02.987Z,58.39
2022-10-31T20:40:55.435Z,58.00
2022-10-31T20:44:01.298Z,58.00
2022-10-31T20:47:07.422Z,57.96
2022-10-31T20:50:14.037Z,58.10
2022-10-31T20:53:19.383Z,58.11
2022-10-31T20:56:31.054Z,57.71
2022-10-31T20:59:37.599Z,58.07
2022-10-31T21:02:43.165Z,58.04
2022-10-31T21:05:50.256Z,58.12
2022-10-31T21:08:57.260Z,58.92
2022-10-31T21:12:05.193Z,58.73
2022-10-31T21:15:11.042Z,58.82
2022-10-31T21:18:17.592Z,58.95
2022-10-31T21:21:32.573Z,59.25
2022-10-31T21:24:37.076Z,59.45
2022-10-31T21:27:42.030Z,59.60
2022-10-31T21:30:48.487Z,59.57
2022-10-31T21:33:55.279Z,59.53
2022-10-31T21:37:01.595Z,59.59
2022-10-31T21:40:07.890Z,59.91
2022-10-31T21:43:13.192Z,59.76
2022-10-31T21:46:23.709Z,59.94
2022-10-31T21:49:29.119Z,60.17
2022-10-31T21:52:27.709Z,60.35
2022-10-31T21:55:14.755Z,60.42
2022-10-31T21:58:06.495Z,60.33
2022-10-31T22:00:52.581Z,60.08
2022-10-31T22:03:45.951Z,60.18
2022-10-31T22:06:51.981Z,60.17
2022-10-31T22:09:58.157Z,59.92
2022-10-31T22:13:05.151Z,59.99
2022-10-31T22:16:17.798Z,60.06
2022-10-31T22:19:27.499Z,60.45
2022-10-31T22:22:34.289Z,59.98
2022-10-31T22:25:40.307Z,60.16
2022-10-31T22:28:47.763Z,60.22
2022-10-31T22:31:59.580Z,60.15
2022-10-31T22:34:59.584Z,59.57
2022-10-31T22:38:05.690Z,59.78
2022-10-31T22:41:12.695Z,59.68
2022-10-31T22:44:19.429Z,59.58
2022-10-31T22:47:25.574Z,60.41
2022-10-31T22:50:31.794Z,60.61
2022-10-31T22:53:37.237Z,60.77
2022-10-31T22:56:47.382Z,60.71
2022-10-31T22:59:51.836Z,60.64
2022-10-31T23:02:57.349Z,60.92
2022-10-31T23:06:14.050Z,60.86
2022-10-31T23:09:21.069Z,60.73
2022-10-31T23:12:44.156Z,60.38
2022-10-31T23:15:52.534Z,60.26
2022-10-31T23:18:58.457Z,60.48
2022-10-31T23:22:08.533Z,61.12
2022-10-31T23:25:14.224Z,61.50
2022-10-31T23:28:19.847Z,61.63
2022-10-31T23:31:26.545Z,61.39
2022-10-31T23:34:32.079Z,60.86
2022-10-31T23:37:39.653Z,61.24
2022-10-31T23:40:47.254Z,61.17
2022-10-31T23:43:55.312Z,61.35
2022-10-31T23:47:02.516Z,61.40
2022-10-31T23:50:08.081Z,61.31
2022-10-31T23:53:15.181Z,61.31
2022-10-31T23:56:22.477Z,61.30
2022-10-31T23:59:30.208Z,61.05
